Архив погоды в Гдове

Метеограмма Гдов
Среда, 17 Июля
Время местн. Темп Ветер Видим Явления Облачность нижн/средн/верх Атм. давл. Влжн Точка росы ВНГО R Сост. почвы Tg s
Напр Скр Прв ур.ст ур.м изм
03:00 +12° В 2 - 20 км - переменная облачность 753 756 -0.2 91% +10.6° 1.5 км - - - -
00:00 +13.5° С-В 1 - 20 км - переменная облачность 753 757 +0.3 88% +11.6° 1 км - - - -
Вторник, 16 Июля
Время местн. Темп Ветер Видим Явления Облачность нижн/средн/верх Атм. давл. Влжн Точка росы ВНГО R Сост. почвы Tg s
Напр Скр Прв ур.ст ур.м изм
21:00 +15.6° В,С-В 2 - 20 км небо без изменений {гроза, ливневые осадки} облачно с прояснениями 753 756 -0.1 81% +12.4° 1 км 0.3 - - -
18:00 +17.4° Ю,Ю-З 3 - 10 км слабая или умеренная гроза с осадками облачно с прояснениями 753 756 +0.2 76% +13.2° 1 км - - - -
15:00 +22.6° Ю-В 4 - 20 км - облачно 753 756 -0.8 44% +9.6° 1 км - - - -
12:00 +21.8° Ю 4 - 20 км - облачно с прояснениями 753 757 -0.2 50% +10.9° 1 км - - - -
09:00 +18.6° Ю-В 3 - 20 км - переменная облачность 753 757 -0.4 68% +12.5° - 0 Влажная (без луж) - -
06:00 +12.2° В,Ю-В 1 - 20 км - переменная облачность 754 758 -0.5 86% +9.9° - - - - -
03:00 +10.9° В,Ю-В 1 - 20 км - переменная облачность 754 758 -0.3 86% +8.7° 1.5 км - - - -
00:00 +11.9° В 1 - 20 км - облачно с прояснениями 755 758 0 92% +10.6° 1 км - - - -
Понедельник, 15 Июля
Время местн. Темп Ветер Видим Явления Облачность нижн/средн/верх Атм. давл. Влжн Точка росы ВНГО R Сост. почвы Tg s
Напр Скр Прв ур.ст ур.м изм
21:00 +14.9° Ю 1 - 20 км - облачно с прояснениями 755 758 -0.3 83% +12° 1 км 0 - - -
18:00 +19.7° С 1 - 20 км - переменная облачность 755 759 -0.4 38% +5.1° 1 км - - - -
15:00 +18.2° З,С-З 3 - 20 км - переменная облачность 755 759 -0.4 48% +7° 1 км - - - -
12:00 +17.1° З 4 - 20 км - переменная облачность 756 759 0 66% +10.7° 1 км - - - -
09:00 +15.4° С,С-В 2 - 20 км - переменная облачность 756 759 -0.2 69% +9.7° 1 км 0 Влажная (без луж) - -
06:00 +7.8° штиль 0 - 20 км - переменная облачность 756 760 +0.1 99% +7.6° 1 км - - - -
03:00 +8.1° С-В 1 - 20 км - облачно с прояснениями 756 760 0 95% +7.4° 1 км - - - -
00:00 +11.5° С,С-В 2 - 20 км - облачно 756 759 +0.2 81% +8.4° 1 км - - - -
Воскресенье, 14 Июля
Время местн. Темп Ветер Видим Явления Облачность нижн/средн/верх Атм. давл. Влжн Точка росы ВНГО R Сост. почвы Tg s
Напр Скр Прв ур.ст ур.м изм
21:00 +14.9° С 2 - 20 км - облачно с прояснениями 756 759 +0.3 67% +8.9° 1 км 0 - - -
18:00 +18.1° З,С-З 3 - 20 км - облачно с прояснениями 755 759 -0.1 57% +9.4° 1 км - - - -
15:00 +18° З,С-З 3 - 20 км - переменная облачность 755 759 -0.2 58% +9.5° 1 км - - - -
12:00 +16.5° С-З 2 - 20 км - переменная облачность 756 759 +0.3 68% +10.5° 1 км - - - -
09:00 +14.7° В 2 - 20 км - облачно 755 759 +0.2 73% +10° 1.5 км 0 Влажная (без луж) - -
06:00 +8.3° С,С-В 1 - 20 км - облачно с прояснениями 755 759 +0.1 100% +8.3° 1.5 км - - - -
03:00 - +7.8° С-В 1 - 18 км - - 755 759 +0.5 100% +7.8° - - - - -
00:00 - +12° С,С-В 1 - 20 км - - 755 758 +0.5 95% +11.2° - - - - -